sensor_id;sensor_type;location;lat;lon;timestamp;temperature;humidity
65038;DHT22;51605;47.040;15.294;2024-02-28T00:01:05;20.80;51.10
65038;DHT22;51605;47.040;15.294;2024-02-28T00:03:30;20.80;51.10
65038;DHT22;51605;47.040;15.294;2024-02-28T00:05:57;20.80;51.20
65038;DHT22;51605;47.040;15.294;2024-02-28T00:08:23;20.80;51.20
65038;DHT22;51605;47.040;15.294;2024-02-28T00:10:48;20.70;51.00
65038;DHT22;51605;47.040;15.294;2024-02-28T00:13:14;20.80;51.10
65038;DHT22;51605;47.040;15.294;2024-02-28T00:15:40;20.80;51.10
65038;DHT22;51605;47.040;15.294;2024-02-28T00:18:07;20.80;51.10
65038;DHT22;51605;47.040;15.294;2024-02-28T00:20:32;20.80;51.10
65038;DHT22;51605;47.040;15.294;2024-02-28T00:22:58;20.80;51.10
65038;DHT22;51605;47.040;15.294;2024-02-28T00:25:23;20.80;51.10
65038;DHT22;51605;47.040;15.294;2024-02-28T00:27:49;20.80;51.00
65038;DHT22;51605;47.040;15.294;2024-02-28T00:30:15;20.80;52.10
65038;DHT22;51605;47.040;15.294;2024-02-28T00:32:40;20.80;51.00
65038;DHT22;51605;47.040;15.294;2024-02-28T00:35:06;20.80;51.00
65038;DHT22;51605;47.040;15.294;2024-02-28T00:37:32;20.80;51.00
65038;DHT22;51605;47.040;15.294;2024-02-28T00:39:58;20.80;51.00
65038;DHT22;51605;47.040;15.294;2024-02-28T00:42:23;20.80;51.00
65038;DHT22;51605;47.040;15.294;2024-02-28T00:44:49;20.80;51.10
65038;DHT22;51605;47.040;15.294;2024-02-28T00:47:15;20.80;51.20
65038;DHT22;51605;47.040;15.294;2024-02-28T00:49:40;20.80;51.10
65038;DHT22;51605;47.040;15.294;2024-02-28T00:52:06;20.80;51.10
65038;DHT22;51605;47.040;15.294;2024-02-28T00:54:31;20.80;51.10
65038;DHT22;51605;47.040;15.294;2024-02-28T00:56:57;20.80;51.10
65038;DHT22;51605;47.040;15.294;2024-02-28T00:59:22;20.80;51.10
65038;DHT22;51605;47.040;15.294;2024-02-28T01:01:48;20.80;51.10
65038;DHT22;51605;47.040;15.294;2024-02-28T01:04:14;20.80;51.10
65038;DHT22;51605;47.040;15.294;2024-02-28T01:06:39;20.80;51.00
65038;DHT22;51605;47.040;15.294;2024-02-28T01:09:05;20.80;51.10
65038;DHT22;51605;47.040;15.294;2024-02-28T01:11:30;20.80;51.10
65038;DHT22;51605;47.040;15.294;2024-02-28T01:13:56;20.80;51.10
65038;DHT22;51605;47.040;15.294;2024-02-28T01:16:21;20.80;51.00
65038;DHT22;51605;47.040;15.294;2024-02-28T01:18:47;20.80;51.10
65038;DHT22;51605;47.040;15.294;2024-02-28T01:21:12;20.80;51.10
65038;DHT22;51605;47.040;15.294;2024-02-28T01:23:38;20.80;51.10
65038;DHT22;51605;47.040;15.294;2024-02-28T01:26:04;20.80;51.10
65038;DHT22;51605;47.040;15.294;2024-02-28T01:28:31;20.80;51.10
65038;DHT22;51605;47.040;15.294;2024-02-28T01:30:57;20.80;51.20
65038;DHT22;51605;47.040;15.294;2024-02-28T01:33:23;20.80;51.10
65038;DHT22;51605;47.040;15.294;2024-02-28T01:35:49;20.80;51.10
65038;DHT22;51605;47.040;15.294;2024-02-28T01:38:15;20.80;51.10
65038;DHT22;51605;47.040;15.294;2024-02-28T01:40:44;20.80;51.10
65038;DHT22;51605;47.040;15.294;2024-02-28T01:43:11;20.80;51.00
65038;DHT22;51605;47.040;15.294;2024-02-28T01:45:36;20.80;51.00
65038;DHT22;51605;47.040;15.294;2024-02-28T01:48:02;20.80;51.20
65038;DHT22;51605;47.040;15.294;2024-02-28T01:50:28;20.80;51.10
65038;DHT22;51605;47.040;15.294;2024-02-28T01:52:53;20.80;51.10
65038;DHT22;51605;47.040;15.294;2024-02-28T01:55:19;20.80;51.00
65038;DHT22;51605;47.040;15.294;2024-02-28T01:57:45;20.80;51.10
65038;DHT22;51605;47.040;15.294;2024-02-28T02:00:10;20.80;51.00
65038;DHT22;51605;47.040;15.294;2024-02-28T02:02:36;20.80;51.00
65038;DHT22;51605;47.040;15.294;2024-02-28T02:05:02;20.80;51.00
65038;DHT22;51605;47.040;15.294;2024-02-28T02:07:27;20.80;51.10
65038;DHT22;51605;47.040;15.294;2024-02-28T02:09:53;20.80;51.10
65038;DHT22;51605;47.040;15.294;2024-02-28T02:12:19;20.80;51.10
65038;DHT22;51605;47.040;15.294;2024-02-28T02:14:48;20.80;51.10
65038;DHT22;51605;47.040;15.294;2024-02-28T02:17:13;20.80;51.10
65038;DHT22;51605;47.040;15.294;2024-02-28T02:19:39;20.80;51.10
65038;DHT22;51605;47.040;15.294;2024-02-28T02:22:05;20.80;51.10
65038;DHT22;51605;47.040;15.294;2024-02-28T02:24:30;20.80;51.10
65038;DHT22;51605;47.040;15.294;2024-02-28T02:26:58;20.80;51.00
65038;DHT22;51605;47.040;15.294;2024-02-28T02:29:23;20.80;51.10
65038;DHT22;51605;47.040;15.294;2024-02-28T02:31:49;20.80;51.10
65038;DHT22;51605;47.040;15.294;2024-02-28T02:34:15;20.80;51.00
65038;DHT22;51605;47.040;15.294;2024-02-28T02:36:40;20.80;51.10
65038;DHT22;51605;47.040;15.294;2024-02-28T02:39:06;20.80;51.00
65038;DHT22;51605;47.040;15.294;2024-02-28T02:41:33;20.80;51.00
65038;DHT22;51605;47.040;15.294;2024-02-28T02:43:59;20.80;51.00
65038;DHT22;51605;47.040;15.294;2024-02-28T02:46:24;20.80;52.00
65038;DHT22;51605;47.040;15.294;2024-02-28T02:48:50;20.80;51.00
65038;DHT22;51605;47.040;15.294;2024-02-28T02:51:15;20.80;51.00
65038;DHT22;51605;47.040;15.294;2024-02-28T02:53:43;20.80;52.00
65038;DHT22;51605;47.040;15.294;2024-02-28T02:56:08;20.80;51.10
65038;DHT22;51605;47.040;15.294;2024-02-28T02:58:34;20.80;51.00
65038;DHT22;51605;47.040;15.294;2024-02-28T03:01:00;20.80;51.00
65038;DHT22;51605;47.040;15.294;2024-02-28T03:03:25;20.80;52.00
65038;DHT22;51605;47.040;15.294;2024-02-28T03:05:51;20.80;51.10
65038;DHT22;51605;47.040;15.294;2024-02-28T03:08:16;20.80;51.10
65038;DHT22;51605;47.040;15.294;2024-02-28T03:10:42;20.80;51.10
65038;DHT22;51605;47.040;15.294;2024-02-28T03:13:07;20.80;51.10
65038;DHT22;51605;47.040;15.294;2024-02-28T03:15:33;20.80;51.20
65038;DHT22;51605;47.040;15.294;2024-02-28T03:17:59;20.80;51.10
65038;DHT22;51605;47.040;15.294;2024-02-28T03:20:24;20.80;51.20
65038;DHT22;51605;47.040;15.294;2024-02-28T03:22:51;20.80;51.10
65038;DHT22;51605;47.040;15.294;2024-02-28T03:25:17;20.80;51.10
65038;DHT22;51605;47.040;15.294;2024-02-28T03:27:43;20.80;51.10
65038;DHT22;51605;47.040;15.294;2024-02-28T03:30:08;20.80;51.10
65038;DHT22;51605;47.040;15.294;2024-02-28T03:32:34;20.80;51.10
65038;DHT22;51605;47.040;15.294;2024-02-28T03:34:59;20.80;51.10
65038;DHT22;51605;47.040;15.294;2024-02-28T03:37:25;20.80;51.10
65038;DHT22;51605;47.040;15.294;2024-02-28T03:39:51;20.80;51.10
65038;DHT22;51605;47.040;15.294;2024-02-28T03:42:17;20.80;51.10
65038;DHT22;51605;47.040;15.294;2024-02-28T03:44:42;20.80;51.10
65038;DHT22;51605;47.040;15.294;2024-02-28T03:47:08;20.80;51.10
65038;DHT22;51605;47.040;15.294;2024-02-28T03:49:34;20.80;51.10
65038;DHT22;51605;47.040;15.294;2024-02-28T03:52:00;20.80;51.10
65038;DHT22;51605;47.040;15.294;2024-02-28T03:54:26;20.80;51.10
65038;DHT22;51605;47.040;15.294;2024-02-28T03:56:52;20.80;51.10
65038;DHT22;51605;47.040;15.294;2024-02-28T03:59:17;20.80;51.10
65038;DHT22;51605;47.040;15.294;2024-02-28T04:01:43;20.80;51.10
65038;DHT22;51605;47.040;15.294;2024-02-28T04:04:09;20.80;51.10
65038;DHT22;51605;47.040;15.294;2024-02-28T04:06:34;20.80;51.20
65038;DHT22;51605;47.040;15.294;2024-02-28T04:09:00;20.80;51.20
65038;DHT22;51605;47.040;15.294;2024-02-28T04:11:25;20.80;51.10
65038;DHT22;51605;47.040;15.294;2024-02-28T04:13:51;20.80;51.10
65038;DHT22;51605;47.040;15.294;2024-02-28T04:16:16;20.80;51.10
65038;DHT22;51605;47.040;15.294;2024-02-28T04:18:42;20.80;51.10
65038;DHT22;51605;47.040;15.294;2024-02-28T04:21:08;20.80;51.00
65038;DHT22;51605;47.040;15.294;2024-02-28T04:23:34;20.80;51.00
65038;DHT22;51605;47.040;15.294;2024-02-28T04:25:59;20.80;51.00
65038;DHT22;51605;47.040;15.294;2024-02-28T04:28:25;20.80;51.10
65038;DHT22;51605;47.040;15.294;2024-02-28T04:30:50;20.80;51.10
65038;DHT22;51605;47.040;15.294;2024-02-28T04:33:16;20.80;51.20
65038;DHT22;51605;47.040;15.294;2024-02-28T04:35:42;20.80;51.20
65038;DHT22;51605;47.040;15.294;2024-02-28T04:38:07;20.80;51.20
65038;DHT22;51605;47.040;15.294;2024-02-28T04:40:33;20.80;51.20
65038;DHT22;51605;47.040;15.294;2024-02-28T04:42:58;20.80;51.10
65038;DHT22;51605;47.040;15.294;2024-02-28T04:45:24;20.80;51.10
65038;DHT22;51605;47.040;15.294;2024-02-28T04:47:49;20.80;51.10
65038;DHT22;51605;47.040;15.294;2024-02-28T04:50:17;20.80;51.10
65038;DHT22;51605;47.040;15.294;2024-02-28T04:52:42;20.80;51.10
65038;DHT22;51605;47.040;15.294;2024-02-28T04:55:08;20.80;51.10
65038;DHT22;51605;47.040;15.294;2024-02-28T04:57:33;20.80;51.10
65038;DHT22;51605;47.040;15.294;2024-02-28T04:59:59;20.80;51.10
65038;DHT22;51605;47.040;15.294;2024-02-28T05:02:25;20.80;51.10
65038;DHT22;51605;47.040;15.294;2024-02-28T05:04:51;20.80;51.10
65038;DHT22;51605;47.040;15.294;2024-02-28T05:07:16;20.80;51.10
65038;DHT22;51605;47.040;15.294;2024-02-28T05:09:42;20.80;51.10
65038;DHT22;51605;47.040;15.294;2024-02-28T05:12:08;20.80;51.10
65038;DHT22;51605;47.040;15.294;2024-02-28T05:14:34;20.80;51.10
65038;DHT22;51605;47.040;15.294;2024-02-28T05:16:59;20.80;51.20
65038;DHT22;51605;47.040;15.294;2024-02-28T05:19:25;20.80;51.10
65038;DHT22;51605;47.040;15.294;2024-02-28T05:21:50;20.80;51.20
65038;DHT22;51605;47.040;15.294;2024-02-28T05:24:16;20.80;51.10
65038;DHT22;51605;47.040;15.294;2024-02-28T05:26:41;20.80;51.10
65038;DHT22;51605;47.040;15.294;2024-02-28T05:29:07;20.80;51.20
65038;DHT22;51605;47.040;15.294;2024-02-28T05:31:33;20.80;51.20
65038;DHT22;51605;47.040;15.294;2024-02-28T05:33:59;20.80;51.20
65038;DHT22;51605;47.040;15.294;2024-02-28T05:36:28;20.80;51.20
65038;DHT22;51605;47.040;15.294;2024-02-28T05:38:55;20.80;51.20
65038;DHT22;51605;47.040;15.294;2024-02-28T05:41:21;20.80;51.20
65038;DHT22;51605;47.040;15.294;2024-02-28T05:43:47;20.80;51.20
65038;DHT22;51605;47.040;15.294;2024-02-28T05:46:13;20.80;51.20
65038;DHT22;51605;47.040;15.294;2024-02-28T05:48:40;20.80;51.20
65038;DHT22;51605;47.040;15.294;2024-02-28T05:51:06;20.80;51.30
65038;DHT22;51605;47.040;15.294;2024-02-28T05:53:31;20.80;51.20
65038;DHT22;51605;47.040;15.294;2024-02-28T05:56:04;20.80;51.20
65038;DHT22;51605;47.040;15.294;2024-02-28T05:58:29;20.80;51.20
65038;DHT22;51605;47.040;15.294;2024-02-28T06:00:55;20.80;51.20
65038;DHT22;51605;47.040;15.294;2024-02-28T06:03:21;20.80;51.20
65038;DHT22;51605;47.040;15.294;2024-02-28T06:05:47;20.80;51.20
65038;DHT22;51605;47.040;15.294;2024-02-28T06:08:12;20.80;51.20
65038;DHT22;51605;47.040;15.294;2024-02-28T06:10:38;20.80;51.20
65038;DHT22;51605;47.040;15.294;2024-02-28T06:13:03;20.80;51.20
65038;DHT22;51605;47.040;15.294;2024-02-28T06:15:29;20.80;51.20
65038;DHT22;51605;47.040;15.294;2024-02-28T06:17:58;20.80;51.20
65038;DHT22;51605;47.040;15.294;2024-02-28T06:20:25;20.80;51.20
65038;DHT22;51605;47.040;15.294;2024-02-28T06:22:51;20.80;51.30
65038;DHT22;51605;47.040;15.294;2024-02-28T06:25:17;20.80;51.30
65038;DHT22;51605;47.040;15.294;2024-02-28T06:27:48;20.80;51.30
65038;DHT22;51605;47.040;15.294;2024-02-28T06:30:13;20.80;51.30
65038;DHT22;51605;47.040;15.294;2024-02-28T06:32:40;20.80;51.30
65038;DHT22;51605;47.040;15.294;2024-02-28T06:35:08;20.80;51.20
65038;DHT22;51605;47.040;15.294;2024-02-28T06:37:34;20.80;51.10
65038;DHT22;51605;47.040;15.294;2024-02-28T06:40:00;20.80;51.10
65038;DHT22;51605;47.040;15.294;2024-02-28T06:42:26;20.80;51.10
65038;DHT22;51605;47.040;15.294;2024-02-28T06:44:51;20.80;51.10
65038;DHT22;51605;47.040;15.294;2024-02-28T06:47:17;20.80;51.10
65038;DHT22;51605;47.040;15.294;2024-02-28T06:49:43;20.80;51.10
65038;DHT22;51605;47.040;15.294;2024-02-28T06:52:09;20.80;51.20
65038;DHT22;51605;47.040;15.294;2024-02-28T06:54:34;20.80;51.20
65038;DHT22;51605;47.040;15.294;2024-02-28T06:57:00;20.80;51.20
65038;DHT22;51605;47.040;15.294;2024-02-28T06:59:25;20.80;51.30
65038;DHT22;51605;47.040;15.294;2024-02-28T07:01:51;20.80;51.20
65038;DHT22;51605;47.040;15.294;2024-02-28T07:04:16;20.80;51.20
65038;DHT22;51605;47.040;15.294;2024-02-28T07:06:42;20.80;51.20
65038;DHT22;51605;47.040;15.294;2024-02-28T07:09:08;20.80;51.20
65038;DHT22;51605;47.040;15.294;2024-02-28T07:11:34;20.80;51.20
65038;DHT22;51605;47.040;15.294;2024-02-28T07:14:00;20.80;51.20
65038;DHT22;51605;47.040;15.294;2024-02-28T07:16:28;20.80;51.20
65038;DHT22;51605;47.040;15.294;2024-02-28T07:18:53;20.80;51.20
65038;DHT22;51605;47.040;15.294;2024-02-28T07:21:19;20.80;51.20
65038;DHT22;51605;47.040;15.294;2024-02-28T07:23:44;20.80;51.10
65038;DHT22;51605;47.040;15.294;2024-02-28T07:26:19;20.80;51.20
65038;DHT22;51605;47.040;15.294;2024-02-28T07:28:45;20.80;51.30
65038;DHT22;51605;47.040;15.294;2024-02-28T07:31:20;20.80;51.20
65038;DHT22;51605;47.040;15.294;2024-02-28T07:33:47;20.80;51.20
65038;DHT22;51605;47.040;15.294;2024-02-28T07:36:13;20.80;51.20
65038;DHT22;51605;47.040;15.294;2024-02-28T07:38:40;20.80;51.30
65038;DHT22;51605;47.040;15.294;2024-02-28T07:41:06;20.80;51.30
65038;DHT22;51605;47.040;15.294;2024-02-28T07:43:32;20.80;51.20
65038;DHT22;51605;47.040;15.294;2024-02-28T07:46:11;20.80;51.30
65038;DHT22;51605;47.040;15.294;2024-02-28T07:48:37;20.80;51.20
65038;DHT22;51605;47.040;15.294;2024-02-28T07:51:08;20.80;51.20
65038;DHT22;51605;47.040;15.294;2024-02-28T07:53:34;20.80;51.30
65038;DHT22;51605;47.040;15.294;2024-02-28T07:55:59;20.80;51.30
65038;DHT22;51605;47.040;15.294;2024-02-28T07:58:25;20.80;51.30
65038;DHT22;51605;47.040;15.294;2024-02-28T08:00:51;20.80;51.30
65038;DHT22;51605;47.040;15.294;2024-02-28T08:03:18;20.80;51.30
65038;DHT22;51605;47.040;15.294;2024-02-28T08:05:43;20.80;51.20
65038;DHT22;51605;47.040;15.294;2024-02-28T08:08:10;20.80;51.20
65038;DHT22;51605;47.040;15.294;2024-02-28T08:10:36;20.80;51.20
65038;DHT22;51605;47.040;15.294;2024-02-28T08:13:02;20.80;51.20
65038;DHT22;51605;47.040;15.294;2024-02-28T08:15:27;20.80;51.20
65038;DHT22;51605;47.040;15.294;2024-02-28T08:17:53;20.80;51.00
65038;DHT22;51605;47.040;15.294;2024-02-28T08:20:19;20.80;50.90
65038;DHT22;51605;47.040;15.294;2024-02-28T08:22:45;20.80;50.80
65038;DHT22;51605;47.040;15.294;2024-02-28T08:25:11;20.80;50.70
65038;DHT22;51605;47.040;15.294;2024-02-28T08:27:37;20.80;50.50
65038;DHT22;51605;47.040;15.294;2024-02-28T08:30:04;20.80;50.40
65038;DHT22;51605;47.040;15.294;2024-02-28T08:32:31;20.80;50.40
65038;DHT22;51605;47.040;15.294;2024-02-28T08:34:57;20.80;50.40
65038;DHT22;51605;47.040;15.294;2024-02-28T08:37:23;20.80;50.50
65038;DHT22;51605;47.040;15.294;2024-02-28T08:39:49;20.80;50.50
65038;DHT22;51605;47.040;15.294;2024-02-28T08:42:14;20.80;50.40
65038;DHT22;51605;47.040;15.294;2024-02-28T08:44:40;20.80;50.50
65038;DHT22;51605;47.040;15.294;2024-02-28T08:47:06;20.80;50.40
65038;DHT22;51605;47.040;15.294;2024-02-28T08:49:34;20.80;50.30
65038;DHT22;51605;47.040;15.294;2024-02-28T08:52:00;20.80;50.20
65038;DHT22;51605;47.040;15.294;2024-02-28T08:54:26;20.80;50.30
65038;DHT22;51605;47.040;15.294;2024-02-28T08:56:51;20.80;50.10
65038;DHT22;51605;47.040;15.294;2024-02-28T08:59:17;20.80;50.10
65038;DHT22;51605;47.040;15.294;2024-02-28T09:01:42;20.80;50.10
65038;DHT22;51605;47.040;15.294;2024-02-28T09:04:08;20.80;50.00
65038;DHT22;51605;47.040;15.294;2024-02-28T09:06:34;20.80;50.10
65038;DHT22;51605;47.040;15.294;2024-02-28T09:09:00;20.80;50.20
65038;DHT22;51605;47.040;15.294;2024-02-28T09:11:25;20.80;50.30
65038;DHT22;51605;47.040;15.294;2024-02-28T09:13:51;20.80;50.30
65038;DHT22;51605;47.040;15.294;2024-02-28T09:16:16;20.80;50.30
65038;DHT22;51605;47.040;15.294;2024-02-28T09:18:42;20.80;50.40
65038;DHT22;51605;47.040;15.294;2024-02-28T09:21:08;20.80;50.40
65038;DHT22;51605;47.040;15.294;2024-02-28T09:23:34;20.80;50.50
65038;DHT22;51605;47.040;15.294;2024-02-28T09:26:05;20.80;50.50
65038;DHT22;51605;47.040;15.294;2024-02-28T09:28:31;20.80;50.50
65038;DHT22;51605;47.040;15.294;2024-02-28T09:30:57;20.80;50.60
65038;DHT22;51605;47.040;15.294;2024-02-28T09:33:22;20.80;50.60
65038;DHT22;51605;47.040;15.294;2024-02-28T09:35:48;20.80;50.60
65038;DHT22;51605;47.040;15.294;2024-02-28T09:38:14;20.80;50.60
65038;DHT22;51605;47.040;15.294;2024-02-28T09:40:39;20.80;50.70
65038;DHT22;51605;47.040;15.294;2024-02-28T09:43:05;20.90;50.70
65038;DHT22;51605;47.040;15.294;2024-02-28T09:45:32;20.90;50.70
65038;DHT22;51605;47.040;15.294;2024-02-28T09:47:58;20.80;50.70
65038;DHT22;51605;47.040;15.294;2024-02-28T09:50:25;20.90;50.70
65038;DHT22;51605;47.040;15.294;2024-02-28T09:52:51;20.90;50.70
65038;DHT22;51605;47.040;15.294;2024-02-28T09:55:16;20.90;50.70
65038;DHT22;51605;47.040;15.294;2024-02-28T09:57:42;20.90;50.90
65038;DHT22;51605;47.040;15.294;2024-02-28T10:00:09;20.90;50.90
65038;DHT22;51605;47.040;15.294;2024-02-28T10:02:35;20.90;50.80
65038;DHT22;51605;47.040;15.294;2024-02-28T10:05:01;20.90;50.80
65038;DHT22;51605;47.040;15.294;2024-02-28T10:07:29;20.90;50.90
65038;DHT22;51605;47.040;15.294;2024-02-28T10:09:54;20.90;50.90
65038;DHT22;51605;47.040;15.294;2024-02-28T10:12:20;20.90;51.00
65038;DHT22;51605;47.040;15.294;2024-02-28T10:14:45;20.90;51.00
65038;DHT22;51605;47.040;15.294;2024-02-28T10:17:14;20.90;51.00
65038;DHT22;51605;47.040;15.294;2024-02-28T10:19:39;20.90;51.00
65038;DHT22;51605;47.040;15.294;2024-02-28T10:22:05;20.90;51.00
65038;DHT22;51605;47.040;15.294;2024-02-28T10:24:32;20.90;51.00
65038;DHT22;51605;47.040;15.294;2024-02-28T10:27:00;20.90;51.00
65038;DHT22;51605;47.040;15.294;2024-02-28T10:29:26;20.90;51.00
65038;DHT22;51605;47.040;15.294;2024-02-28T10:31:56;20.90;51.00
65038;DHT22;51605;47.040;15.294;2024-02-28T10:34:22;20.90;51.00
65038;DHT22;51605;47.040;15.294;2024-02-28T10:36:48;20.90;51.00
65038;DHT22;51605;47.040;15.294;2024-02-28T10:39:14;20.90;51.00
65038;DHT22;51605;47.040;15.294;2024-02-28T10:41:40;20.90;51.00
65038;DHT22;51605;47.040;15.294;2024-02-28T10:44:05;20.90;51.00
65038;DHT22;51605;47.040;15.294;2024-02-28T10:46:31;20.90;51.00
65038;DHT22;51605;47.040;15.294;2024-02-28T10:48:57;20.90;51.10
65038;DHT22;51605;47.040;15.294;2024-02-28T10:51:23;20.90;51.10
65038;DHT22;51605;47.040;15.294;2024-02-28T10:53:54;20.90;51.00
65038;DHT22;51605;47.040;15.294;2024-02-28T10:56:22;20.90;51.00
65038;DHT22;51605;47.040;15.294;2024-02-28T10:58:51;20.90;51.00
65038;DHT22;51605;47.040;15.294;2024-02-28T11:01:17;20.90;51.00
65038;DHT22;51605;47.040;15.294;2024-02-28T11:03:42;20.90;51.10
65038;DHT22;51605;47.040;15.294;2024-02-28T11:06:17;20.90;51.10
65038;DHT22;51605;47.040;15.294;2024-02-28T11:08:45;20.90;51.10
65038;DHT22;51605;47.040;15.294;2024-02-28T11:11:13;20.90;51.10
65038;DHT22;51605;47.040;15.294;2024-02-28T11:13:39;20.90;51.10
65038;DHT22;51605;47.040;15.294;2024-02-28T11:16:10;20.90;51.20
65038;DHT22;51605;47.040;15.294;2024-02-28T11:18:36;20.90;51.20
65038;DHT22;51605;47.040;15.294;2024-02-28T11:21:16;20.90;51.20
65038;DHT22;51605;47.040;15.294;2024-02-28T11:23:45;20.90;51.20
65038;DHT22;51605;47.040;15.294;2024-02-28T11:26:12;20.90;51.20
65038;DHT22;51605;47.040;15.294;2024-02-28T11:28:38;20.90;51.30
65038;DHT22;51605;47.040;15.294;2024-02-28T11:31:05;20.90;51.20
65038;DHT22;51605;47.040;15.294;2024-02-28T11:33:30;20.90;51.20
65038;DHT22;51605;47.040;15.294;2024-02-28T11:35:58;20.90;51.30
65038;DHT22;51605;47.040;15.294;2024-02-28T11:38:27;21.00;51.30
65038;DHT22;51605;47.040;15.294;2024-02-28T11:40:53;20.90;51.30
65038;DHT22;51605;47.040;15.294;2024-02-28T11:43:19;20.90;51.20
65038;DHT22;51605;47.040;15.294;2024-02-28T11:45:45;20.90;51.30
65038;DHT22;51605;47.040;15.294;2024-02-28T11:48:13;20.90;51.30
65038;DHT22;51605;47.040;15.294;2024-02-28T11:50:39;20.90;51.30
65038;DHT22;51605;47.040;15.294;2024-02-28T11:53:05;20.90;51.40
65038;DHT22;51605;47.040;15.294;2024-02-28T11:55:32;20.90;51.30
65038;DHT22;51605;47.040;15.294;2024-02-28T11:57:57;20.90;51.40
65038;DHT22;51605;47.040;15.294;2024-02-28T12:00:23;20.90;51.40
65038;DHT22;51605;47.040;15.294;2024-02-28T12:02:49;20.90;51.40
65038;DHT22;51605;47.040;15.294;2024-02-28T12:05:14;20.90;51.40
65038;DHT22;51605;47.040;15.294;2024-02-28T12:07:40;20.90;51.40
65038;DHT22;51605;47.040;15.294;2024-02-28T12:10:06;20.90;51.40
65038;DHT22;51605;47.040;15.294;2024-02-28T12:12:33;20.90;51.40
65038;DHT22;51605;47.040;15.294;2024-02-28T12:14:59;20.90;51.40
65038;DHT22;51605;47.040;15.294;2024-02-28T12:17:25;20.90;51.40
65038;DHT22;51605;47.040;15.294;2024-02-28T12:19:51;20.90;51.50
65038;DHT22;51605;47.040;15.294;2024-02-28T12:22:17;20.90;51.50
65038;DHT22;51605;47.040;15.294;2024-02-28T12:24:42;20.90;51.50
65038;DHT22;51605;47.040;15.294;2024-02-28T12:27:08;20.90;51.50
65038;DHT22;51605;47.040;15.294;2024-02-28T12:29:33;20.90;51.50
65038;DHT22;51605;47.040;15.294;2024-02-28T12:31:59;20.90;51.50
65038;DHT22;51605;47.040;15.294;2024-02-28T12:34:24;20.90;51.50
65038;DHT22;51605;47.040;15.294;2024-02-28T12:36:50;20.90;51.50
65038;DHT22;51605;47.040;15.294;2024-02-28T12:39:15;20.90;51.50
65038;DHT22;51605;47.040;15.294;2024-02-28T12:41:41;20.90;51.60
65038;DHT22;51605;47.040;15.294;2024-02-28T12:44:06;20.90;51.60
65038;DHT22;51605;47.040;15.294;2024-02-28T12:46:35;20.90;51.60
65038;DHT22;51605;47.040;15.294;2024-02-28T12:49:01;20.90;51.60
65038;DHT22;51605;47.040;15.294;2024-02-28T12:51:39;20.90;51.60
65038;DHT22;51605;47.040;15.294;2024-02-28T12:54:06;20.90;51.70
65038;DHT22;51605;47.040;15.294;2024-02-28T12:56:31;20.90;51.70
65038;DHT22;51605;47.040;15.294;2024-02-28T12:58:57;20.90;51.70
65038;DHT22;51605;47.040;15.294;2024-02-28T13:01:24;20.90;51.70
65038;DHT22;51605;47.040;15.294;2024-02-28T13:03:49;20.90;51.80
65038;DHT22;51605;47.040;15.294;2024-02-28T13:06:15;20.90;51.80
65038;DHT22;51605;47.040;15.294;2024-02-28T13:08:40;20.90;51.70
65038;DHT22;51605;47.040;15.294;2024-02-28T13:11:06;20.90;51.80
65038;DHT22;51605;47.040;15.294;2024-02-28T13:13:33;20.90;51.80
65038;DHT22;51605;47.040;15.294;2024-02-28T13:15:58;20.90;51.80
65038;DHT22;51605;47.040;15.294;2024-02-28T13:18:24;20.90;51.80
65038;DHT22;51605;47.040;15.294;2024-02-28T13:20:51;20.90;51.80
65038;DHT22;51605;47.040;15.294;2024-02-28T13:23:17;20.90;51.80
65038;DHT22;51605;47.040;15.294;2024-02-28T13:25:43;20.90;51.80
65038;DHT22;51605;47.040;15.294;2024-02-28T13:28:09;20.90;51.80
65038;DHT22;51605;47.040;15.294;2024-02-28T13:30:34;20.90;51.80
65038;DHT22;51605;47.040;15.294;2024-02-28T13:33:04;20.90;51.80
65038;DHT22;51605;47.040;15.294;2024-02-28T13:35:30;20.90;51.80
65038;DHT22;51605;47.040;15.294;2024-02-28T13:37:56;20.90;51.90
65038;DHT22;51605;47.040;15.294;2024-02-28T13:40:26;20.90;51.90
65038;DHT22;51605;47.040;15.294;2024-02-28T13:42:52;20.90;51.90
65038;DHT22;51605;47.040;15.294;2024-02-28T13:45:17;20.90;51.90
65038;DHT22;51605;47.040;15.294;2024-02-28T13:47:43;20.90;52.00
65038;DHT22;51605;47.040;15.294;2024-02-28T13:50:08;20.90;51.90
65038;DHT22;51605;47.040;15.294;2024-02-28T13:52:35;20.90;52.10
65038;DHT22;51605;47.040;15.294;2024-02-28T13:55:00;20.90;52.00
65038;DHT22;51605;47.040;15.294;2024-02-28T13:57:26;20.90;52.10
65038;DHT22;51605;47.040;15.294;2024-02-28T13:59:51;20.90;52.10
65038;DHT22;51605;47.040;15.294;2024-02-28T14:02:20;20.90;52.10
65038;DHT22;51605;47.040;15.294;2024-02-28T14:04:46;20.90;52.00
65038;DHT22;51605;47.040;15.294;2024-02-28T14:07:14;20.90;52.10
65038;DHT22;51605;47.040;15.294;2024-02-28T14:09:41;20.90;52.00
65038;DHT22;51605;47.040;15.294;2024-02-28T14:12:07;20.90;52.10
65038;DHT22;51605;47.040;15.294;2024-02-28T14:14:33;20.90;52.00
65038;DHT22;51605;47.040;15.294;2024-02-28T14:16:58;20.90;52.00
65038;DHT22;51605;47.040;15.294;2024-02-28T14:19:24;20.90;52.00
65038;DHT22;51605;47.040;15.294;2024-02-28T14:21:50;20.90;52.00
65038;DHT22;51605;47.040;15.294;2024-02-28T14:24:16;20.90;52.10
65038;DHT22;51605;47.040;15.294;2024-02-28T14:26:47;20.90;52.10
65038;DHT22;51605;47.040;15.294;2024-02-28T14:29:13;20.90;52.00
65038;DHT22;51605;47.040;15.294;2024-02-28T14:31:39;20.90;52.00
65038;DHT22;51605;47.040;15.294;2024-02-28T14:34:04;20.90;52.00
65038;DHT22;51605;47.040;15.294;2024-02-28T14:36:30;20.90;52.00
65038;DHT22;51605;47.040;15.294;2024-02-28T14:38:56;20.90;52.00
65038;DHT22;51605;47.040;15.294;2024-02-28T14:41:22;20.90;52.00
65038;DHT22;51605;47.040;15.294;2024-02-28T14:43:48;20.90;52.00
65038;DHT22;51605;47.040;15.294;2024-02-28T14:46:14;20.90;52.00
65038;DHT22;51605;47.040;15.294;2024-02-28T14:48:42;20.90;52.00
65038;DHT22;51605;47.040;15.294;2024-02-28T14:51:08;20.90;52.00
65038;DHT22;51605;47.040;15.294;2024-02-28T14:53:34;20.90;52.00
65038;DHT22;51605;47.040;15.294;2024-02-28T14:56:00;20.90;52.00
65038;DHT22;51605;47.040;15.294;2024-02-28T14:58:25;20.90;52.00
65038;DHT22;51605;47.040;15.294;2024-02-28T15:00:51;20.90;52.00
65038;DHT22;51605;47.040;15.294;2024-02-28T15:03:17;20.90;52.00
65038;DHT22;51605;47.040;15.294;2024-02-28T15:05:44;20.90;52.00
65038;DHT22;51605;47.040;15.294;2024-02-28T15:08:10;20.90;52.00